createdAt,value
2022-10-13T00:01:24.979Z,34.80
2022-10-13T00:03:56.442Z,27.80
2022-10-13T00:06:29.529Z,33.40
2022-10-13T00:08:56.833Z,16.95
2022-10-13T00:11:29.130Z,21.48
2022-10-13T00:14:01.398Z,20.67
2022-10-13T00:16:30.003Z,19.27
2022-10-13T00:18:57.493Z,19.55
2022-10-13T00:21:28.849Z,20.98
2022-10-13T00:23:59.674Z,24.20
2022-10-13T00:26:27.817Z,21.70
2022-10-13T00:28:56.975Z,25.33
2022-10-13T00:31:30.070Z,27.27
2022-10-13T00:34:01.048Z,28.63
2022-10-13T00:36:29.575Z,23.63
2022-10-13T00:38:59.138Z,26.70
2022-10-13T00:41:29.647Z,18.88
2022-10-13T00:44:06.385Z,23.38
2022-10-13T00:46:37.644Z,17.92
2022-10-13T00:49:15.895Z,17.92
2022-10-13T00:51:49.314Z,19.50
2022-10-13T00:54:25.375Z,18.73
2022-10-13T00:56:56.779Z,19.98
2022-10-13T00:59:29.399Z,18.25
2022-10-13T01:02:00.891Z,19.15
2022-10-13T01:04:37.336Z,19.02
2022-10-13T01:07:07.340Z,20.00
2022-10-13T01:09:42.942Z,16.98
2022-10-13T01:12:39.670Z,18.77
2022-10-13T01:15:27.740Z,19.02
2022-10-13T01:18:37.398Z,21.17
2022-10-13T01:21:32.821Z,17.73
2022-10-13T01:24:40.759Z,19.10
2022-10-13T01:27:17.283Z,18.75
2022-10-13T01:30:05.683Z,18.73
2022-10-13T01:32:58.908Z,19.48
2022-10-13T01:36:17.669Z,17.75
2022-10-13T01:39:11.131Z,15.55
2022-10-13T01:42:05.723Z,15.02
2022-10-13T01:44:43.461Z,17.48
2022-10-13T01:47:15.567Z,14.68
2022-10-13T01:49:47.021Z,16.10
2022-10-13T01:52:38.073Z,15.65
2022-10-13T01:55:11.700Z,14.73
2022-10-13T01:57:43.178Z,17.75
2022-10-13T02:00:19.963Z,18.25
2022-10-13T02:02:55.992Z,14.25
2022-10-13T02:06:10.331Z,20.27
2022-10-13T02:08:47.661Z,16.77
2022-10-13T02:11:27.898Z,17.85
2022-10-13T02:14:21.590Z,16.63
2022-10-13T02:16:52.174Z,14.70
2022-10-13T02:19:21.000Z,18.17
2022-10-13T02:22:32.407Z,17.88
2022-10-13T02:25:03.100Z,17.42
2022-10-13T02:27:30.980Z,12.80
2022-10-13T02:29:58.598Z,16.98
2022-10-13T02:32:26.214Z,16.45
2022-10-13T02:34:54.445Z,15.40
2022-10-13T02:37:23.876Z,18.70
2022-10-13T02:39:50.937Z,13.82
2022-10-13T02:42:19.016Z,18.70
2022-10-13T02:44:46.415Z,17.70
2022-10-13T02:49:40.594Z,15.80
2022-10-13T02:54:40.457Z,14.50
2022-10-13T02:57:08.019Z,15.63
2022-10-13T02:59:35.143Z,16.08
2022-10-13T03:04:29.755Z,14.50
2022-10-13T03:06:57.400Z,19.58
2022-10-13T03:09:24.467Z,14.73
2022-10-13T03:11:51.651Z,15.63
2022-10-13T03:16:50.033Z,14.25
2022-10-13T03:19:20.036Z,19.35
2022-10-13T03:21:48.339Z,16.52
2022-10-13T03:24:15.440Z,17.48
2022-10-13T03:26:47.210Z,17.10
2022-10-13T03:29:18.672Z,18.27
2022-10-13T03:31:52.543Z,17.30
2022-10-13T03:34:22.518Z,15.07
2022-10-13T03:36:50.683Z,16.17
2022-10-13T03:39:18.650Z,14.13
2022-10-13T03:41:46.349Z,13.68
2022-10-13T03:44:17.124Z,13.50
2022-10-13T03:46:45.147Z,14.70
2022-10-13T03:49:13.336Z,13.70
2022-10-13T03:51:40.917Z,16.52
2022-10-13T03:54:11.119Z,16.45
2022-10-13T03:56:39.912Z,17.08
2022-10-13T03:59:10.470Z,20.25
2022-10-13T04:01:43.645Z,23.33
2022-10-13T04:04:15.754Z,16.98
2022-10-13T04:06:42.952Z,16.20
2022-10-13T04:09:10.015Z,17.33
2022-10-13T04:11:37.104Z,19.70
2022-10-13T04:14:05.171Z,17.52
2022-10-13T04:16:32.558Z,19.13
2022-10-13T04:19:05.296Z,19.55
2022-10-13T04:21:34.873Z,15.05
2022-10-13T04:24:03.851Z,17.42
2022-10-13T04:26:35.554Z,13.63
2022-10-13T04:29:07.986Z,11.23
2022-10-13T04:31:39.038Z,14.43
2022-10-13T04:34:07.842Z,12.27
2022-10-13T04:36:41.424Z,16.65
2022-10-13T04:41:35.845Z,13.18
2022-10-13T04:44:05.946Z,11.27
2022-10-13T04:46:38.799Z,16.27
2022-10-13T04:49:07.419Z,15.73
2022-10-13T04:51:34.567Z,16.45
2022-10-13T04:54:03.245Z,13.52
2022-10-13T04:56:32.661Z,19.27
2022-10-13T04:59:01.235Z,15.00
2022-10-13T05:01:28.948Z,16.25
2022-10-13T05:04:04.262Z,15.23
2022-10-13T05:06:48.608Z,16.05
2022-10-13T05:09:24.765Z,18.08
2022-10-13T05:14:25.201Z,16.38
2022-10-13T05:16:52.398Z,14.40
2022-10-13T05:19:24.115Z,14.45
2022-10-13T05:21:55.649Z,16.13
2022-10-13T05:24:46.057Z,15.57
2022-10-13T05:27:14.102Z,16.00
2022-10-13T05:29:44.852Z,15.48
2022-10-13T05:32:18.838Z,17.27
2022-10-13T05:34:49.490Z,19.52
2022-10-13T05:37:18.438Z,16.80
2022-10-13T05:39:48.899Z,17.48
2022-10-13T05:42:16.372Z,16.50
2022-10-13T05:47:10.587Z,17.55
2022-10-13T05:49:40.092Z,14.70
2022-10-13T05:52:14.219Z,13.93
2022-10-13T05:54:47.442Z,16.80
2022-10-13T05:57:33.419Z,15.27
2022-10-13T06:00:10.073Z,15.73
2022-10-13T06:02:48.913Z,14.90
2022-10-13T06:05:24.598Z,16.13
2022-10-13T06:07:53.910Z,14.95
2022-10-13T06:10:25.149Z,15.82
2022-10-13T06:12:54.721Z,17.70
2022-10-13T06:15:27.951Z,19.10
2022-10-13T06:17:55.448Z,18.00
2022-10-13T06:20:27.544Z,15.90
2022-10-13T06:22:59.406Z,16.70
2022-10-13T06:25:26.591Z,17.05
2022-10-13T06:30:20.693Z,17.40
2022-10-13T06:32:50.320Z,15.32
2022-10-13T06:35:20.340Z,18.98
2022-10-13T06:37:48.772Z,17.50
2022-10-13T06:40:22.634Z,15.35
2022-10-13T06:42:51.169Z,17.83
2022-10-13T06:45:24.184Z,13.70
2022-10-13T06:47:55.397Z,15.73
2022-10-13T06:50:24.543Z,15.63
2022-10-13T06:52:52.342Z,18.02
2022-10-13T06:55:22.544Z,14.93
2022-10-13T06:57:49.628Z,16.02
2022-10-13T07:00:16.915Z,15.48
2022-10-13T07:02:50.478Z,19.00
2022-10-13T07:05:25.206Z,15.02
2022-10-13T07:07:58.593Z,15.93
2022-10-13T07:10:25.771Z,16.58
2022-10-13T07:15:19.847Z,18.20
2022-10-13T07:20:13.959Z,14.43
2022-10-13T07:22:41.057Z,14.50
2022-10-13T07:25:09.014Z,14.80
2022-10-13T07:27:38.164Z,14.45
2022-10-13T07:30:11.662Z,12.18
2022-10-13T07:32:42.134Z,12.45
2022-10-13T07:35:11.064Z,13.48
2022-10-13T07:37:39.471Z,12.20
2022-10-13T07:40:08.155Z,14.32
2022-10-13T07:42:37.915Z,10.65
2022-10-13T07:45:05.799Z,13.25
2022-10-13T07:47:34.942Z,15.55
2022-10-13T07:50:02.056Z,16.77
2022-10-13T07:52:31.909Z,12.38
2022-10-13T07:55:01.879Z,12.55
2022-10-13T07:57:29.047Z,13.13
2022-10-13T08:02:23.247Z,12.00
2022-10-13T08:04:50.415Z,10.90
2022-10-13T08:09:45.450Z,14.15
2022-10-13T08:14:39.719Z,14.55
2022-10-13T08:19:36.782Z,11.75
2022-10-13T08:27:19.025Z,11.15
2022-10-13T08:29:46.696Z,11.38
2022-10-13T08:32:14.903Z,12.45
2022-10-13T08:34:42.450Z,11.73
2022-10-13T08:37:16.550Z,10.57
2022-10-13T08:39:44.232Z,10.25
2022-10-13T08:42:23.286Z,10.23
2022-10-13T08:47:54.884Z,10.25
2022-10-13T08:50:27.465Z,10.52
2022-10-13T08:53:07.688Z,16.15
2022-10-13T08:56:25.010Z,13.23
2022-10-13T08:58:58.271Z,10.93
2022-10-13T09:01:33.262Z,10.95
2022-10-13T09:04:39.448Z,11.10
2022-10-13T09:07:13.990Z,9.10
2022-10-13T09:09:41.445Z,11.15
2022-10-13T09:12:13.527Z,10.18
2022-10-13T09:14:41.891Z,7.72
2022-10-13T09:17:28.991Z,9.13
2022-10-13T09:20:25.511Z,9.65
2022-10-13T09:23:15.619Z,8.32
2022-10-13T09:25:57.231Z,9.10
2022-10-13T09:28:50.258Z,8.55
2022-10-13T09:31:34.258Z,9.20
2022-10-13T09:34:29.083Z,7.53
2022-10-13T09:37:04.897Z,7.63
2022-10-13T09:39:41.088Z,7.93
2022-10-13T09:42:28.640Z,6.75
2022-10-13T09:45:25.730Z,7.55
2022-10-13T09:48:06.957Z,7.25
2022-10-13T09:50:54.449Z,7.95
2022-10-13T09:53:40.398Z,7.85
2022-10-13T09:56:24.214Z,5.88
2022-10-13T09:59:22.074Z,14.18
2022-10-13T10:01:58.641Z,7.57
2022-10-13T10:04:38.809Z,5.45
2022-10-13T10:07:39.123Z,5.80
2022-10-13T10:10:27.294Z,6.35
2022-10-13T10:12:55.126Z,6.20
2022-10-13T10:15:48.633Z,6.50
2022-10-13T10:19:06.181Z,7.03
2022-10-13T10:22:28.024Z,6.45
2022-10-13T10:25:49.441Z,5.25
2022-10-13T10:28:50.182Z,6.38
2022-10-13T10:31:43.577Z,5.70
2022-10-13T10:34:46.956Z,7.72
2022-10-13T10:37:45.303Z,7.38
2022-10-13T10:40:55.459Z,6.65
2022-10-13T10:44:05.693Z,5.70
2022-10-13T10:46:41.519Z,6.05
2022-10-13T10:49:29.063Z,5.85
2022-10-13T10:52:03.407Z,5.95
2022-10-13T10:55:21.793Z,6.38
2022-10-13T10:58:40.956Z,6.57
2022-10-13T11:01:34.982Z,5.15
2022-10-13T11:04:37.576Z,6.03
2022-10-13T11:07:38.147Z,5.80
2022-10-13T11:10:26.606Z,6.78
2022-10-13T11:12:57.500Z,6.18
2022-10-13T11:15:42.934Z,6.65
2022-10-13T11:19:10.139Z,6.10
2022-10-13T11:22:02.094Z,6.35
2022-10-13T11:25:23.013Z,7.53
2022-10-13T11:27:51.000Z,6.97
2022-10-13T11:30:44.933Z,5.90
2022-10-13T11:33:37.735Z,6.18
2022-10-13T11:36:45.583Z,5.25
2022-10-13T11:40:13.101Z,5.38
2022-10-13T11:43:14.498Z,5.28
2022-10-13T11:46:10.187Z,6.95
2022-10-13T11:49:21.906Z,5.57
2022-10-13T11:52:54.603Z,6.00
2022-10-13T11:55:53.870Z,4.97
2022-10-13T11:58:33.930Z,6.78
2022-10-13T12:01:13.430Z,5.82
2022-10-13T12:06:39.529Z,6.10
2022-10-13T12:09:22.983Z,4.88
2022-10-13T12:12:24.692Z,8.15
2022-10-13T12:15:06.952Z,5.75
2022-10-13T12:17:41.096Z,6.15
2022-10-13T12:20:30.493Z,6.07
2022-10-13T12:23:01.173Z,6.20
2022-10-13T12:25:34.673Z,7.40
2022-10-13T12:28:05.717Z,6.38
2022-10-13T12:30:37.280Z,6.10
2022-10-13T12:33:31.091Z,8.95
2022-10-13T12:36:21.385Z,6.88
2022-10-13T12:39:16.861Z,7.47
2022-10-13T12:41:51.535Z,5.38
2022-10-13T12:44:31.780Z,6.32
2022-10-13T12:47:03.853Z,7.53
2022-10-13T12:49:36.391Z,6.35
2022-10-13T12:52:16.365Z,7.25
2022-10-13T12:54:58.049Z,5.72
2022-10-13T12:57:38.924Z,6.57
2022-10-13T13:00:19.370Z,7.63
2022-10-13T13:03:03.758Z,8.25
2022-10-13T13:05:51.621Z,6.07
2022-10-13T13:08:33.031Z,7.50
2022-10-13T13:11:25.056Z,5.63
2022-10-13T13:14:36.842Z,6.65
2022-10-13T13:17:11.670Z,6.75
2022-10-13T13:19:53.617Z,5.43
2022-10-13T13:22:21.061Z,5.40
2022-10-13T13:24:52.505Z,7.75
2022-10-13T13:27:36.814Z,5.55
2022-10-13T13:30:13.861Z,7.03
2022-10-13T13:32:41.526Z,5.70
2022-10-13T13:35:10.379Z,5.82
2022-10-13T13:37:50.574Z,6.55
2022-10-13T13:40:28.587Z,5.60
2022-10-13T13:42:56.512Z,5.47
2022-10-13T13:45:41.395Z,5.32
2022-10-13T13:48:12.348Z,5.75
2022-10-13T13:50:42.834Z,7.65
2022-10-13T13:53:10.969Z,5.38
2022-10-13T13:55:39.135Z,7.13
2022-10-13T13:58:06.370Z,5.20
2022-10-13T14:00:33.991Z,4.38
2022-10-13T14:03:06.167Z,5.30
2022-10-13T14:05:33.279Z,5.10
2022-10-13T14:08:01.355Z,6.70
2022-10-13T14:10:33.188Z,4.90
2022-10-13T14:13:04.189Z,6.97
2022-10-13T14:15:41.772Z,6.10
2022-10-13T14:18:09.212Z,6.00
2022-10-13T14:20:42.371Z,5.53
2022-10-13T14:23:09.465Z,6.95
2022-10-13T14:25:44.996Z,7.63
2022-10-13T14:28:17.912Z,5.30
2022-10-13T14:30:45.478Z,6.25
2022-10-13T14:33:23.409Z,6.38
2022-10-13T14:36:01.168Z,6.72
2022-10-13T14:38:28.510Z,5.03
2022-10-13T14:41:04.389Z,5.63
2022-10-13T14:43:36.285Z,4.82
2022-10-13T14:46:25.775Z,6.75
2022-10-13T14:49:06.295Z,7.78
2022-10-13T14:51:37.042Z,6.50
2022-10-13T14:54:05.137Z,7.55
2022-10-13T14:56:33.411Z,6.00
2022-10-13T14:59:07.790Z,6.65
2022-10-13T15:01:35.176Z,6.05
2022-10-13T15:04:03.525Z,5.97
2022-10-13T15:06:32.485Z,7.53
2022-10-13T15:08:59.950Z,6.28
2022-10-13T15:11:27.843Z,8.13
2022-10-13T15:13:56.412Z,6.70
2022-10-13T15:16:28.760Z,6.60
2022-10-13T15:19:08.737Z,7.48
2022-10-13T15:21:38.210Z,7.28
2022-10-13T15:24:05.584Z,7.05
2022-10-13T15:26:33.816Z,8.23
2022-10-13T15:29:00.958Z,8.32
2022-10-13T15:31:28.277Z,6.47
2022-10-13T15:33:55.561Z,9.05
2022-10-13T15:36:24.525Z,5.65
2022-10-13T15:38:52.616Z,6.78
2022-10-13T15:41:26.550Z,9.25
2022-10-13T15:43:53.822Z,6.60
2022-10-13T15:46:24.501Z,8.10
2022-10-13T15:48:58.615Z,8.68
2022-10-13T15:51:27.316Z,8.00
2022-10-13T15:53:55.389Z,7.90
2022-10-13T15:56:22.763Z,8.05
2022-10-13T15:58:50.220Z,13.77
2022-10-13T16:01:17.647Z,6.88
2022-10-13T16:03:45.032Z,7.35
2022-10-13T16:06:13.595Z,11.13
2022-10-13T16:08:47.409Z,14.48
2022-10-13T16:11:20.385Z,8.52
2022-10-13T16:13:52.321Z,13.90
2022-10-13T16:16:23.081Z,11.88
2022-10-13T16:18:51.465Z,6.97
2022-10-13T16:21:25.831Z,9.50
2022-10-13T16:23:53.354Z,10.35
2022-10-13T16:26:21.207Z,10.35
2022-10-13T16:28:48.685Z,12.48
2022-10-13T16:31:18.030Z,9.07
2022-10-13T16:33:46.257Z,13.20
2022-10-13T16:36:19.628Z,10.23
2022-10-13T16:41:21.095Z,10.23
2022-10-13T16:43:48.894Z,12.48
2022-10-13T16:46:22.000Z,8.88
2022-10-13T16:48:50.712Z,9.15
2022-10-13T16:51:22.401Z,11.95
2022-10-13T16:54:10.285Z,11.30
2022-10-13T16:56:40.773Z,9.57
2022-10-13T16:59:08.652Z,9.60
2022-10-13T17:01:36.700Z,10.75
2022-10-13T17:04:11.042Z,10.43
2022-10-13T17:06:40.938Z,10.52
2022-10-13T17:09:10.376Z,10.05
2022-10-13T17:11:40.935Z,10.77
2022-10-13T17:14:12.229Z,12.20
2022-10-13T17:16:39.339Z,10.07
2022-10-13T17:21:40.785Z,9.55
2022-10-13T17:26:41.204Z,12.80
2022-10-13T17:29:09.680Z,11.85
2022-10-13T17:31:37.578Z,10.65
2022-10-13T17:34:06.506Z,10.85
2022-10-13T17:36:36.389Z,10.75
2022-10-13T17:39:08.324Z,12.00
2022-10-13T17:41:36.372Z,10.43
2022-10-13T17:44:06.630Z,11.32
2022-10-13T17:46:37.348Z,13.07
2022-10-13T17:49:08.227Z,11.50
2022-10-13T17:51:37.666Z,11.23
2022-10-13T17:54:14.443Z,11.75
2022-10-13T17:56:48.235Z,10.57
2022-10-13T17:59:17.439Z,11.38
2022-10-13T18:01:46.138Z,27.30
2022-10-13T18:04:19.102Z,18.08
2022-10-13T18:06:48.697Z,13.30
2022-10-13T18:09:23.448Z,12.07
2022-10-13T18:11:56.904Z,11.00
2022-10-13T18:16:55.599Z,9.90
2022-10-13T18:19:23.056Z,10.15
2022-10-13T18:21:52.954Z,12.57
2022-10-13T18:24:20.618Z,13.98
2022-10-13T18:26:50.955Z,11.65
2022-10-13T18:29:18.710Z,11.15
2022-10-13T18:31:46.678Z,13.88
2022-10-13T18:34:20.544Z,13.23
2022-10-13T18:36:56.906Z,13.18
2022-10-13T18:39:27.808Z,12.68
2022-10-13T18:41:57.801Z,12.98
2022-10-13T18:44:34.341Z,9.75
2022-10-13T18:47:01.661Z,10.40
2022-10-13T18:49:34.924Z,10.80
2022-10-13T18:52:04.063Z,10.40
2022-10-13T18:54:35.001Z,11.23
2022-10-13T18:57:06.234Z,11.23
2022-10-13T18:59:38.859Z,10.40
2022-10-13T19:02:13.630Z,11.52
2022-10-13T19:04:41.097Z,19.05
2022-10-13T19:07:08.258Z,15.00
2022-10-13T19:09:39.312Z,12.88
2022-10-13T19:12:09.262Z,12.77
2022-10-13T19:14:36.711Z,13.00
2022-10-13T19:17:06.302Z,14.88
2022-10-13T19:19:34.219Z,17.75
2022-10-13T19:22:05.419Z,19.27
2022-10-13T19:24:32.695Z,18.48
2022-10-13T19:29:27.142Z,20.90
2022-10-13T19:31:58.820Z,20.67
2022-10-13T19:34:26.097Z,18.40
2022-10-13T19:39:29.886Z,18.90
2022-10-13T19:41:58.457Z,13.57
2022-10-13T19:44:27.176Z,12.15
2022-10-13T19:46:55.576Z,11.95
2022-10-13T19:49:26.557Z,13.13
2022-10-13T19:51:55.800Z,13.68
2022-10-13T19:54:32.942Z,24.50
2022-10-13T19:57:01.613Z,15.98
2022-10-13T19:59:33.610Z,11.93
2022-10-13T20:02:01.222Z,13.40
2022-10-13T20:04:29.306Z,14.07
2022-10-13T20:06:57.723Z,11.30
2022-10-13T20:09:24.831Z,10.52
2022-10-13T20:11:52.855Z,11.20
2022-10-13T20:14:20.494Z,15.43
2022-10-13T20:16:56.625Z,10.32
2022-10-13T20:19:24.005Z,10.45
2022-10-13T20:21:54.409Z,13.27
2022-10-13T20:24:24.014Z,11.55
2022-10-13T20:26:55.920Z,9.52
2022-10-13T20:29:23.606Z,12.63
2022-10-13T20:31:56.978Z,13.20
2022-10-13T20:34:24.418Z,11.25
2022-10-13T20:36:56.722Z,10.48
2022-10-13T20:39:24.403Z,11.65
2022-10-13T20:41:51.916Z,12.05
2022-10-13T20:44:19.156Z,11.52
2022-10-13T20:46:46.211Z,12.07
2022-10-13T20:49:16.246Z,12.43
2022-10-13T20:51:47.401Z,12.85
2022-10-13T20:54:17.930Z,14.40
2022-10-13T20:56:45.161Z,13.18
2022-10-13T21:01:45.497Z,11.02
2022-10-13T21:04:12.701Z,12.52
2022-10-13T21:09:13.008Z,8.93
2022-10-13T21:11:43.028Z,11.82
2022-10-13T21:14:13.697Z,11.30
2022-10-13T21:16:40.960Z,35.22
2022-10-13T21:21:36.480Z,25.05
2022-10-13T21:24:07.883Z,31.45
2022-10-13T21:26:40.033Z,30.92
2022-10-13T21:29:07.449Z,20.33
2022-10-13T21:31:42.725Z,12.68
2022-10-13T21:34:11.413Z,15.50
2022-10-13T21:36:42.476Z,12.57
2022-10-13T21:39:13.527Z,11.45
2022-10-13T21:42:01.939Z,11.77
2022-10-13T21:44:31.080Z,11.13
2022-10-13T21:47:02.790Z,13.00
2022-10-13T21:49:30.008Z,12.25
2022-10-13T21:54:25.595Z,8.43
2022-10-13T21:59:26.504Z,11.98
2022-10-13T22:01:55.411Z,10.80
2022-10-13T22:04:22.699Z,9.13
2022-10-13T22:09:17.711Z,10.23
2022-10-13T22:11:45.369Z,11.95
2022-10-13T22:14:13.183Z,10.82
2022-10-13T22:16:48.815Z,11.05
2022-10-13T22:19:24.607Z,11.27
2022-10-13T22:21:52.367Z,11.60
2022-10-13T22:24:21.690Z,12.93
2022-10-13T22:26:50.731Z,14.30
2022-10-13T22:29:22.633Z,11.07
2022-10-13T22:31:55.152Z,9.90
2022-10-13T22:34:22.696Z,13.68
2022-10-13T22:36:51.619Z,13.75
2022-10-13T22:39:18.855Z,14.43
2022-10-13T22:41:48.991Z,13.32
2022-10-13T22:44:16.139Z,14.77
2022-10-13T22:46:46.567Z,12.95
2022-10-13T22:49:22.543Z,12.25
2022-10-13T22:51:50.094Z,13.80
2022-10-13T22:54:17.174Z,11.68
2022-10-13T22:56:44.305Z,13.15
2022-10-13T22:59:14.066Z,12.00
2022-10-13T23:01:41.360Z,11.60
2022-10-13T23:06:39.849Z,13.75
2022-10-13T23:11:42.718Z,13.85
2022-10-13T23:14:11.096Z,16.10
2022-10-13T23:16:38.206Z,15.13
2022-10-13T23:19:05.486Z,14.18
2022-10-13T23:21:33.289Z,13.35
2022-10-13T23:24:05.812Z,12.10
2022-10-13T23:26:34.716Z,13.00
2022-10-13T23:29:03.209Z,14.30
2022-10-13T23:31:31.330Z,16.42
2022-10-13T23:33:58.998Z,13.10
2022-10-13T23:36:32.002Z,12.80
2022-10-13T23:39:04.874Z,12.82
2022-10-13T23:41:32.593Z,13.30
2022-10-13T23:43:59.869Z,13.13
2022-10-13T23:46:27.706Z,12.25
2022-10-13T23:48:55.432Z,11.43
2022-10-13T23:51:26.722Z,14.38
2022-10-13T23:54:01.329Z,14.20
2022-10-13T23:56:31.402Z,15.73
2022-10-13T23:59:00.543Z,13.88
